createdAt,value
2022-08-17T00:01:51.945Z,22.20
2022-08-17T00:04:22.310Z,22.19
2022-08-17T00:06:53.369Z,22.15
2022-08-17T00:09:25.845Z,22.15
2022-08-17T00:12:40.985Z,22.09
2022-08-17T00:14:45.307Z,22.08
2022-08-17T00:17:14.980Z,22.05
2022-08-17T00:19:44.721Z,21.95
2022-08-17T00:22:31.782Z,21.98
2022-08-17T00:25:09.734Z,21.91
2022-08-17T00:27:39.636Z,21.89
2022-08-17T00:30:12.054Z,21.84
2022-08-17T00:33:14.415Z,21.83
2022-08-17T00:35:32.951Z,21.82
2022-08-17T00:38:04.175Z,21.85
2022-08-17T00:40:39.856Z,21.73
2022-08-17T00:43:19.475Z,21.71
2022-08-17T00:45:49.795Z,21.68
2022-08-17T00:48:29.239Z,21.66
2022-08-17T00:51:02.484Z,21.63
2022-08-17T00:53:33.766Z,21.62
2022-08-17T00:56:09.340Z,21.56
2022-08-17T00:58:40.081Z,21.54
2022-08-17T01:01:11.190Z,21.53
2022-08-17T01:03:43.301Z,21.49
2022-08-17T01:06:13.545Z,21.48
2022-08-17T01:08:43.453Z,21.41
2022-08-17T01:11:17.260Z,21.41
2022-08-17T01:13:48.322Z,21.38
2022-08-17T01:16:21.051Z,21.37
2022-08-17T01:18:53.326Z,21.32
2022-08-17T01:21:35.359Z,21.26
2022-08-17T01:24:08.460Z,21.24
2022-08-17T01:26:41.186Z,21.18
2022-08-17T01:29:11.494Z,21.18
2022-08-17T01:31:44.413Z,21.13
2022-08-17T01:34:16.877Z,21.07
2022-08-17T01:36:49.354Z,21.02
2022-08-17T01:39:34.436Z,20.97
2022-08-17T01:42:08.986Z,20.95
2022-08-17T01:44:40.021Z,20.90
2022-08-17T01:47:09.722Z,20.91
2022-08-17T01:49:39.364Z,20.86
2022-08-17T01:52:10.558Z,20.81
2022-08-17T01:54:44.719Z,20.79
2022-08-17T01:57:14.648Z,20.73
2022-08-17T01:59:44.292Z,20.69
2022-08-17T02:02:31.231Z,20.67
2022-08-17T02:05:01.505Z,20.66
2022-08-17T02:07:31.236Z,20.64
2022-08-17T02:10:03.563Z,20.61
2022-08-17T02:12:46.398Z,20.54
2022-08-17T02:15:16.008Z,20.55
2022-08-17T02:17:46.211Z,20.50
2022-08-17T02:20:16.117Z,20.48
2022-08-17T02:23:06.425Z,20.47
2022-08-17T02:25:40.399Z,20.43
2022-08-17T02:28:10.096Z,20.42
2022-08-17T02:31:01.946Z,20.39
2022-08-17T02:33:42.196Z,20.32
2022-08-17T02:36:14.923Z,20.34
2022-08-17T02:38:45.059Z,20.31
2022-08-17T02:41:17.331Z,20.28
2022-08-17T02:43:47.013Z,20.26
2022-08-17T02:46:16.670Z,20.23
2022-08-17T02:48:46.362Z,20.17
2022-08-17T02:51:16.027Z,20.12
2022-08-17T02:53:46.772Z,20.07
2022-08-17T02:56:19.073Z,20.07
2022-08-17T02:58:49.217Z,20.06
2022-08-17T03:01:19.354Z,20.03
2022-08-17T03:03:49.057Z,19.99
2022-08-17T03:06:19.250Z,20.03
2022-08-17T03:08:48.925Z,19.99
2022-08-17T03:11:21.303Z,19.94
2022-08-17T03:13:51.099Z,19.93
2022-08-17T03:16:20.858Z,19.94
2022-08-17T03:18:50.549Z,19.92
2022-08-17T03:21:20.227Z,19.88
2022-08-17T03:23:49.881Z,19.85
2022-08-17T03:26:29.783Z,19.84
2022-08-17T03:28:59.714Z,19.80
2022-08-17T03:31:29.360Z,19.80
2022-08-17T03:33:59.176Z,19.75
2022-08-17T03:36:29.629Z,19.75
2022-08-17T03:39:01.044Z,19.72
2022-08-17T03:41:33.451Z,19.71
2022-08-17T03:44:03.364Z,19.69
2022-08-17T03:46:45.467Z,19.68
2022-08-17T03:49:27.570Z,19.63
2022-08-17T03:52:10.555Z,19.65
2022-08-17T03:54:52.717Z,19.62
2022-08-17T03:57:25.020Z,19.62
2022-08-17T03:59:54.725Z,19.60
2022-08-17T04:02:26.738Z,19.57
2022-08-17T04:04:56.929Z,19.54
2022-08-17T04:07:29.361Z,19.53
2022-08-17T04:09:59.667Z,19.53
2022-08-17T04:12:33.603Z,19.52
2022-08-17T04:15:03.873Z,19.47
2022-08-17T04:17:34.168Z,19.47
2022-08-17T04:20:04.511Z,19.45
2022-08-17T04:22:35.258Z,19.41
2022-08-17T04:25:08.343Z,19.40
2022-08-17T04:27:48.329Z,19.38
2022-08-17T04:30:18.565Z,19.35
2022-08-17T04:33:05.147Z,19.35
2022-08-17T04:35:39.224Z,19.33
2022-08-17T04:38:09.574Z,19.30
2022-08-17T04:40:51.741Z,19.30
2022-08-17T04:43:25.813Z,19.28
2022-08-17T04:45:57.583Z,19.29
2022-08-17T04:48:35.718Z,19.29
2022-08-17T04:51:09.521Z,19.31
2022-08-17T04:53:39.471Z,19.32
2022-08-17T04:56:11.707Z,19.32
2022-08-17T04:58:53.125Z,19.30
2022-08-17T05:01:24.885Z,19.32
2022-08-17T05:03:56.074Z,19.34
2022-08-17T05:06:26.477Z,19.35
2022-08-17T05:08:56.789Z,19.36
2022-08-17T05:11:26.809Z,19.37
2022-08-17T05:14:00.741Z,19.41
2022-08-17T05:16:32.048Z,19.45
2022-08-17T05:19:02.682Z,19.47
2022-08-17T05:21:32.425Z,19.50
2022-08-17T05:24:03.745Z,19.55
2022-08-17T05:26:39.385Z,19.58
2022-08-17T05:29:13.918Z,19.63
2022-08-17T05:31:43.630Z,19.64
2022-08-17T05:34:13.329Z,19.67
2022-08-17T05:36:44.618Z,19.71
2022-08-17T05:39:17.336Z,19.74
2022-08-17T05:41:50.601Z,19.78
2022-08-17T05:44:22.844Z,19.84
2022-08-17T05:46:54.419Z,19.90
2022-08-17T05:49:29.860Z,19.94
2022-08-17T05:52:20.001Z,20.02
2022-08-17T05:54:57.932Z,20.07
2022-08-17T05:57:39.575Z,20.14
2022-08-17T06:00:20.368Z,20.19
2022-08-17T06:03:00.644Z,20.27
2022-08-17T06:05:53.209Z,20.34
2022-08-17T06:08:29.120Z,20.38
2022-08-17T06:11:04.553Z,20.45
2022-08-17T06:13:54.497Z,20.51
2022-08-17T06:16:34.027Z,20.59
2022-08-17T06:19:07.313Z,20.63
2022-08-17T06:21:40.511Z,20.68
2022-08-17T06:24:15.951Z,20.73
2022-08-17T06:26:46.948Z,20.76
2022-08-17T06:29:23.986Z,20.80
2022-08-17T06:31:56.972Z,20.88
2022-08-17T06:34:26.800Z,20.93
2022-08-17T06:37:01.032Z,20.98
2022-08-17T06:39:42.099Z,21.03
2022-08-17T06:42:54.713Z,21.11
2022-08-17T06:45:15.133Z,21.17
2022-08-17T06:47:52.468Z,21.26
2022-08-17T06:50:26.432Z,21.31
2022-08-17T06:53:01.060Z,21.38
2022-08-17T06:55:38.322Z,21.45
2022-08-17T06:58:16.155Z,21.50
2022-08-17T07:00:48.673Z,21.59
2022-08-17T07:03:29.306Z,21.68
2022-08-17T07:06:02.164Z,21.78
2022-08-17T07:08:38.013Z,21.88
2022-08-17T07:11:13.065Z,21.96
2022-08-17T07:13:51.410Z,22.07
2022-08-17T07:16:27.514Z,22.16
2022-08-17T07:19:00.554Z,22.21
2022-08-17T07:21:40.886Z,22.31
2022-08-17T07:24:29.610Z,22.42
2022-08-17T07:27:09.343Z,22.56
2022-08-17T07:29:42.984Z,22.68
2022-08-17T07:32:14.568Z,22.77
2022-08-17T07:35:11.137Z,22.88
2022-08-17T07:37:42.337Z,22.99
2022-08-17T07:40:28.695Z,23.09
2022-08-17T07:43:15.644Z,23.19
2022-08-17T07:46:11.582Z,23.27
2022-08-17T07:48:42.969Z,23.34
2022-08-17T07:51:26.992Z,23.43
2022-08-17T07:54:13.087Z,23.48
2022-08-17T07:56:46.896Z,23.54
2022-08-17T07:59:23.323Z,23.59
2022-08-17T08:02:19.091Z,23.66
2022-08-17T08:05:01.320Z,23.71
2022-08-17T08:07:36.421Z,23.77
2022-08-17T08:10:13.125Z,23.82
2022-08-17T08:12:45.146Z,23.91
2022-08-17T08:15:22.844Z,24.00
2022-08-17T08:17:55.425Z,24.05
2022-08-17T08:20:51.432Z,24.10
2022-08-17T08:23:29.548Z,24.16
2022-08-17T08:26:08.107Z,24.22
2022-08-17T08:28:43.459Z,24.26
2022-08-17T08:31:24.462Z,24.30
2022-08-17T08:34:05.575Z,24.32
2022-08-17T08:37:14.545Z,24.34
2022-08-17T08:39:47.924Z,24.41
2022-08-17T08:42:23.365Z,24.42
2022-08-17T08:45:04.145Z,24.48
2022-08-17T08:47:51.454Z,24.53
2022-08-17T08:50:37.429Z,24.60
2022-08-17T08:53:18.962Z,24.62
2022-08-17T08:55:56.368Z,24.67
2022-08-17T08:58:41.919Z,24.72
2022-08-17T09:01:19.288Z,24.75
2022-08-17T09:04:23.267Z,24.79
2022-08-17T09:07:01.384Z,24.83
2022-08-17T09:09:41.480Z,24.85
2022-08-17T09:12:19.563Z,24.88
2022-08-17T09:14:56.858Z,24.86
2022-08-17T09:17:35.595Z,24.83
2022-08-17T09:20:14.413Z,24.81
2022-08-17T09:23:03.962Z,24.82
2022-08-17T09:25:35.980Z,24.84
2022-08-17T09:28:10.364Z,24.86
2022-08-17T09:30:44.178Z,24.92
2022-08-17T09:33:17.727Z,24.90
2022-08-17T09:35:51.144Z,24.90
2022-08-17T09:38:32.191Z,24.90
2022-08-17T09:41:11.750Z,24.88
2022-08-17T09:43:47.925Z,24.88
2022-08-17T09:46:20.801Z,24.89
2022-08-17T09:48:55.352Z,24.92
2022-08-17T09:51:30.321Z,24.92
2022-08-17T09:54:15.136Z,24.94
2022-08-17T09:57:25.893Z,24.97
2022-08-17T09:59:58.441Z,24.96
2022-08-17T10:02:54.096Z,24.99
2022-08-17T10:05:25.978Z,24.96
2022-08-17T10:08:01.921Z,24.90
2022-08-17T10:10:38.264Z,24.87
2022-08-17T10:13:20.369Z,24.85
2022-08-17T10:16:01.566Z,24.83
2022-08-17T10:18:41.911Z,24.86
2022-08-17T10:21:26.338Z,24.84
2022-08-17T10:24:12.966Z,24.77
2022-08-17T10:26:56.881Z,24.75
2022-08-17T10:29:31.342Z,24.74
2022-08-17T10:32:33.073Z,24.73
2022-08-17T10:35:16.060Z,24.72
2022-08-17T10:37:56.489Z,24.70
2022-08-17T10:40:38.735Z,24.72
2022-08-17T10:43:22.845Z,24.69
2022-08-17T10:46:09.469Z,24.70
2022-08-17T10:49:25.533Z,24.68
2022-08-17T10:51:56.282Z,24.66
2022-08-17T10:54:45.535Z,24.68
2022-08-17T10:57:43.272Z,24.65
2022-08-17T11:00:39.492Z,24.61
2022-08-17T11:03:18.772Z,24.58
2022-08-17T11:05:55.742Z,24.59
2022-08-17T11:08:57.601Z,24.57
2022-08-17T11:11:54.366Z,24.53
2022-08-17T11:14:47.325Z,24.51
2022-08-17T11:17:25.457Z,24.53
2022-08-17T11:20:16.805Z,24.54
2022-08-17T11:23:28.010Z,24.57
2022-08-17T11:26:01.833Z,24.58
2022-08-17T11:28:35.917Z,24.60
2022-08-17T11:31:10.609Z,24.59
2022-08-17T11:34:01.336Z,24.59
2022-08-17T11:36:49.296Z,24.58
2022-08-17T11:39:45.019Z,24.57
2022-08-17T11:42:29.692Z,24.55
2022-08-17T11:45:00.872Z,24.59
2022-08-17T11:48:02.500Z,24.61
2022-08-17T11:51:00.141Z,24.71
2022-08-17T11:56:55.538Z,24.82
2022-08-17T11:59:59.695Z,24.92
2022-08-17T12:02:36.155Z,24.96
2022-08-17T12:05:27.527Z,25.04
2022-08-17T12:08:08.719Z,25.12
2022-08-17T12:10:54.910Z,25.17
2022-08-17T12:13:30.580Z,25.19
2022-08-17T12:16:10.191Z,25.24
2022-08-17T12:18:41.991Z,25.30
2022-08-17T12:21:20.546Z,25.39
2022-08-17T12:23:57.664Z,25.49
2022-08-17T12:26:33.079Z,25.54
2022-08-17T12:29:04.211Z,25.50
2022-08-17T12:31:38.427Z,25.53
2022-08-17T12:34:08.198Z,25.51
2022-08-17T12:36:38.367Z,25.56
2022-08-17T12:39:14.248Z,25.58
2022-08-17T12:41:50.326Z,25.63
2022-08-17T12:44:22.117Z,25.74
2022-08-17T12:46:55.550Z,25.82
2022-08-17T12:49:30.979Z,25.92
2022-08-17T12:52:07.004Z,26.07
2022-08-17T12:54:42.630Z,26.18
2022-08-17T12:57:18.866Z,26.36
2022-08-17T12:59:53.534Z,26.43
2022-08-17T13:02:33.264Z,26.49
2022-08-17T13:05:04.492Z,26.58
2022-08-17T13:07:39.023Z,26.59
2022-08-17T13:10:09.399Z,26.61
2022-08-17T13:12:41.986Z,26.68
2022-08-17T13:15:22.382Z,26.76
2022-08-17T13:18:00.021Z,26.83
2022-08-17T13:20:29.760Z,26.88
2022-08-17T13:23:01.096Z,26.85
2022-08-17T13:25:32.197Z,26.84
2022-08-17T13:28:04.668Z,26.85
2022-08-17T13:30:35.332Z,26.86
2022-08-17T13:33:43.441Z,26.90
2022-08-17T13:36:19.472Z,26.97
2022-08-17T13:39:08.623Z,26.94
2022-08-17T13:41:40.196Z,26.96
2022-08-17T13:44:37.726Z,26.97
2022-08-17T13:47:08.972Z,27.04
2022-08-17T13:49:41.963Z,27.13
2022-08-17T13:52:37.868Z,27.22
2022-08-17T13:55:12.084Z,27.31
2022-08-17T13:57:41.744Z,27.34
2022-08-17T14:00:21.026Z,27.36
2022-08-17T14:02:50.671Z,27.30
2022-08-17T14:05:20.713Z,27.31
2022-08-17T14:07:50.988Z,27.36
2022-08-17T14:10:21.132Z,27.36
2022-08-17T14:12:50.916Z,27.30
2022-08-17T14:15:56.389Z,27.23
2022-08-17T14:18:17.761Z,27.17
2022-08-17T14:20:47.563Z,27.19
2022-08-17T14:23:17.736Z,27.23
2022-08-17T14:25:48.683Z,27.26
2022-08-17T14:28:18.455Z,27.35
2022-08-17T14:30:50.723Z,27.36
2022-08-17T14:33:24.965Z,27.37
2022-08-17T14:35:55.948Z,27.42
2022-08-17T14:38:25.911Z,27.45
2022-08-17T14:40:55.959Z,27.46
2022-08-17T14:43:25.638Z,27.45
2022-08-17T14:45:58.484Z,27.48
2022-08-17T14:48:28.880Z,27.50
2022-08-17T14:50:59.020Z,27.54
2022-08-17T14:53:28.827Z,27.57
2022-08-17T14:55:58.492Z,27.57
2022-08-17T14:58:29.408Z,27.52
2022-08-17T15:01:01.906Z,27.49
2022-08-17T15:03:31.873Z,27.48
2022-08-17T15:06:02.696Z,27.37
2022-08-17T15:08:32.808Z,27.29
2022-08-17T15:11:04.567Z,27.20
2022-08-17T15:13:34.302Z,27.12
2022-08-17T15:16:08.565Z,27.10
2022-08-17T15:18:39.258Z,27.12
2022-08-17T15:21:10.226Z,27.09
2022-08-17T15:23:41.741Z,27.03
2022-08-17T15:26:14.030Z,27.00
2022-08-17T15:28:43.737Z,26.99
2022-08-17T15:31:32.014Z,26.99
2022-08-17T15:34:05.342Z,27.02
2022-08-17T15:36:37.797Z,27.08
2022-08-17T15:39:10.977Z,27.06
2022-08-17T15:41:40.643Z,27.06
2022-08-17T15:44:10.489Z,27.02
2022-08-17T15:46:43.173Z,27.01
2022-08-17T15:49:13.793Z,27.04
2022-08-17T15:51:43.489Z,27.02
2022-08-17T15:54:17.270Z,27.04
2022-08-17T15:56:52.464Z,27.02
2022-08-17T15:59:22.147Z,27.03
2022-08-17T16:03:14.921Z,27.09
2022-08-17T16:04:45.444Z,27.05
2022-08-17T16:07:17.939Z,27.05
2022-08-17T16:09:47.898Z,27.00
2022-08-17T16:12:19.517Z,27.00
2022-08-17T16:14:51.742Z,27.00
2022-08-17T16:17:40.042Z,26.98
2022-08-17T16:20:20.242Z,26.94
2022-08-17T16:22:52.195Z,26.93
2022-08-17T16:25:47.127Z,26.91
2022-08-17T16:28:15.003Z,26.89
2022-08-17T16:30:44.716Z,26.93
2022-08-17T16:33:17.851Z,26.92
2022-08-17T16:35:47.523Z,26.95
2022-08-17T16:38:17.227Z,26.98
2022-08-17T16:40:46.868Z,27.01
2022-08-17T16:43:16.777Z,26.97
2022-08-17T16:45:51.858Z,26.93
2022-08-17T16:48:24.502Z,26.90
2022-08-17T16:50:59.991Z,26.88
2022-08-17T16:53:33.959Z,26.81
2022-08-17T16:56:03.669Z,26.78
2022-08-17T16:58:33.398Z,26.74
2022-08-17T17:01:03.169Z,26.72
2022-08-17T17:03:35.619Z,26.70
2022-08-17T17:06:13.484Z,26.66
2022-08-17T17:08:48.395Z,26.61
2022-08-17T17:11:34.188Z,26.60
2022-08-17T17:14:05.717Z,26.57
2022-08-17T17:16:47.010Z,26.51
2022-08-17T17:19:34.547Z,26.46
2022-08-17T17:22:10.557Z,26.43
2022-08-17T17:24:55.327Z,26.44
2022-08-17T17:27:32.360Z,26.43
2022-08-17T17:30:08.847Z,26.38
2022-08-17T17:32:42.510Z,26.34
2022-08-17T17:35:20.446Z,26.26
2022-08-17T17:37:50.315Z,26.17
2022-08-17T17:40:36.023Z,26.12
2022-08-17T17:43:37.070Z,26.05
2022-08-17T17:46:27.351Z,26.02
2022-08-17T17:48:55.264Z,25.97
2022-08-17T17:52:08.550Z,25.94
2022-08-17T17:54:32.479Z,25.92
2022-08-17T17:57:06.026Z,25.86
2022-08-17T17:59:44.127Z,25.78
2022-08-17T18:02:37.001Z,25.71
2022-08-17T18:05:14.111Z,25.68
2022-08-17T18:07:50.972Z,25.67
2022-08-17T18:10:30.021Z,25.71
2022-08-17T18:13:08.095Z,25.82
2022-08-17T18:15:41.663Z,25.88
2022-08-17T18:18:44.575Z,25.83
2022-08-17T18:21:19.360Z,25.78
2022-08-17T18:23:56.114Z,25.74
2022-08-17T18:26:45.488Z,25.57
2022-08-17T18:29:37.585Z,25.61
2022-08-17T18:32:18.934Z,25.53
2022-08-17T18:34:50.308Z,25.49
2022-08-17T18:37:34.619Z,25.41
2022-08-17T18:40:27.804Z,25.36
2022-08-17T18:43:05.610Z,25.32
2022-08-17T18:45:38.815Z,25.27
2022-08-17T18:48:10.845Z,25.23
2022-08-17T18:50:43.585Z,25.17
2022-08-17T18:53:26.467Z,25.14
2022-08-17T18:56:18.989Z,25.06
2022-08-17T18:58:54.220Z,25.00
2022-08-17T19:01:48.838Z,24.95
2022-08-17T19:04:33.867Z,24.92
2022-08-17T19:07:14.144Z,24.82
2022-08-17T19:09:47.097Z,24.71
2022-08-17T19:12:27.478Z,24.64
2022-08-17T19:14:58.507Z,24.65
2022-08-17T19:17:33.179Z,24.62
2022-08-17T19:20:09.864Z,24.52
2022-08-17T19:23:08.398Z,24.49
2022-08-17T19:25:41.984Z,24.47
2022-08-17T19:28:22.211Z,24.43
2022-08-17T19:30:53.825Z,24.35
2022-08-17T19:33:23.583Z,24.36
2022-08-17T19:36:01.650Z,24.24
2022-08-17T19:38:43.455Z,24.23
2022-08-17T19:41:18.938Z,24.18
2022-08-17T19:43:59.894Z,24.12
2022-08-17T19:46:35.654Z,24.04
2022-08-17T19:49:10.151Z,23.98
2022-08-17T19:51:46.406Z,23.92
2022-08-17T19:54:20.509Z,23.85
2022-08-17T19:56:58.273Z,23.79
2022-08-17T19:59:51.629Z,23.74
2022-08-17T20:02:34.152Z,23.68
2022-08-17T20:05:08.851Z,23.61
2022-08-17T20:07:46.115Z,23.58
2022-08-17T20:10:23.693Z,23.50
2022-08-17T20:12:54.428Z,23.44
2022-08-17T20:15:30.859Z,23.38
2022-08-17T20:18:02.863Z,23.35
2022-08-17T20:20:36.554Z,23.30
2022-08-17T20:23:13.378Z,23.23
2022-08-17T20:25:48.276Z,23.20
2022-08-17T20:28:22.620Z,23.14
2022-08-17T20:30:57.337Z,23.10
2022-08-17T20:33:30.374Z,23.06
2022-08-17T20:36:08.375Z,23.01
2022-08-17T20:38:43.367Z,22.98
2022-08-17T20:41:16.373Z,22.92
2022-08-17T20:44:03.771Z,22.87
2022-08-17T20:46:54.936Z,22.87
2022-08-17T20:49:28.915Z,22.82
2022-08-17T20:52:02.955Z,22.79
2022-08-17T20:54:51.741Z,22.73
2022-08-17T20:57:47.445Z,22.70
2022-08-17T21:00:45.248Z,22.67
2022-08-17T21:03:50.187Z,22.65
2022-08-17T21:06:28.005Z,22.61
2022-08-17T21:09:02.210Z,22.59
2022-08-17T21:11:56.974Z,22.51
2022-08-17T21:14:59.687Z,22.45
2022-08-17T21:17:46.541Z,22.34
2022-08-17T21:20:32.355Z,22.34
2022-08-17T21:23:32.123Z,22.26
2022-08-17T21:26:15.704Z,22.21
2022-08-17T21:29:00.640Z,22.17
2022-08-17T21:31:36.890Z,22.15
2022-08-17T21:34:43.225Z,22.05
2022-08-17T21:37:32.346Z,22.02
2022-08-17T21:40:04.241Z,21.99
2022-08-17T21:42:39.029Z,21.89
2022-08-17T21:45:13.348Z,21.87
2022-08-17T21:47:45.268Z,21.78
2022-08-17T21:50:20.936Z,21.80
2022-08-17T21:52:54.039Z,21.76
2022-08-17T21:55:29.695Z,21.68
2022-08-17T21:58:14.100Z,21.65
2022-08-17T22:00:45.446Z,21.61
2022-08-17T22:03:25.974Z,21.55
2022-08-17T22:05:55.722Z,21.50
2022-08-17T22:08:28.861Z,21.46
2022-08-17T22:11:04.664Z,21.41
2022-08-17T22:13:41.224Z,21.38
2022-08-17T22:16:27.659Z,21.37
2022-08-17T22:18:59.289Z,21.32
2022-08-17T22:21:29.141Z,21.31
2022-08-17T22:24:05.157Z,21.24
2022-08-17T22:27:07.043Z,21.22
2022-08-17T22:29:57.818Z,21.16
2022-08-17T22:32:45.063Z,21.09
2022-08-17T22:35:35.380Z,21.02
2022-08-17T22:38:35.311Z,21.01
2022-08-17T22:41:30.239Z,21.01
2022-08-17T22:44:02.395Z,20.98
2022-08-17T22:46:44.366Z,20.93
2022-08-17T22:49:14.139Z,20.88
2022-08-17T22:51:43.901Z,20.89
2022-08-17T22:54:31.260Z,20.82
2022-08-17T22:57:15.123Z,20.82
2022-08-17T22:59:51.467Z,20.79
2022-08-17T23:02:26.553Z,20.75
2022-08-17T23:04:59.301Z,20.76
2022-08-17T23:07:28.990Z,20.68
2022-08-17T23:10:00.260Z,20.66
2022-08-17T23:12:29.992Z,20.63
2022-08-17T23:15:01.668Z,20.59
2022-08-17T23:17:37.352Z,20.56
2022-08-17T23:20:10.391Z,20.53
2022-08-17T23:22:51.748Z,20.51
2022-08-17T23:25:28.939Z,20.44
2022-08-17T23:28:01.439Z,20.43
2022-08-17T23:30:31.534Z,20.41
2022-08-17T23:33:06.837Z,20.36
2022-08-17T23:35:40.445Z,20.32
2022-08-17T23:38:11.978Z,20.30
2022-08-17T23:40:42.455Z,20.25
2022-08-17T23:43:24.412Z,20.24
2022-08-17T23:45:57.498Z,20.23
2022-08-17T23:48:35.592Z,20.19
2022-08-17T23:51:08.652Z,20.19
2022-08-17T23:53:39.178Z,20.15
2022-08-17T23:56:11.280Z,20.14
2022-08-17T23:58:42.579Z,20.09
